Time;durP1;ratioP1;P1;durP2;ratioP2;P2;SDS_P1;SDS_P2;PMS_P1;PMS_P2;Temp;Humidity;BMP_temperature;BMP_pressure;BME280_temperature;BME280_humidity;BME280_pressure;Samples;Min_cycle;Max_cycle;Signal;HPM_P1;HPM_P2
2023/11/23 00:02:11;;;;;;;25.35;4.55;;;;;;;11.55;100.00;99750.03;5114716;28;20030;-72
2023/11/23 00:04:37;;;;;;;36.58;4.60;;;;;;;11.68;100.00;99770.56;5097459;28;20036;-72
2023/11/23 00:07:02;;;;;;;29.55;4.68;;;;;;;11.71;100.00;99772.81;5080771;28;20026;-71
2023/11/23 00:09:28;;;;;;;31.35;4.55;;;;;;;11.70;100.00;99761.22;5098061;28;20020;-72
2023/11/23 00:11:54;;;;;;;37.75;6.20;;;;;;;11.82;100.00;99769.31;5115507;28;20065;-72
2023/11/23 00:14:19;;;;;;;30.45;4.97;;;;;;;11.83;100.00;99772.84;5097904;28;20028;-72
2023/11/23 00:16:45;;;;;;;30.60;4.75;;;;;;;11.86;100.00;99765.13;5114099;28;20020;-72
2023/11/23 00:19:10;;;;;;;23.35;4.07;;;;;;;11.76;100.00;99754.09;5113721;28;20491;-72
2023/11/23 00:21:36;;;;;;;32.10;4.80;;;;;;;11.72;100.00;99718.69;5111576;28;20028;-71
2023/11/23 00:24:02;;;;;;;23.83;3.95;;;;;;;11.66;100.00;99727.72;5111999;28;20036;-72
2023/11/23 00:26:27;;;;;;;32.30;5.40;;;;;;;11.75;100.00;99747.03;5096109;28;20333;-72
2023/11/23 00:28:53;;;;;;;22.50;3.83;;;;;;;11.82;100.00;99733.44;5114601;28;20036;-72
2023/11/23 00:31:18;;;;;;;26.23;4.25;;;;;;;11.88;100.00;99713.69;5106533;28;20032;-72
2023/11/23 00:33:44;;;;;;;22.88;3.95;;;;;;;11.84;100.00;99696.31;5106288;28;20119;-72
2023/11/23 00:36:10;;;;;;;30.10;4.18;;;;;;;11.85;100.00;99692.56;5084107;28;20020;-72
2023/11/23 00:38:35;;;;;;;26.10;4.40;;;;;;;11.86;100.00;99702.31;5104459;28;20024;-72
2023/11/23 00:41:01;;;;;;;31.20;6.70;;;;;;;11.83;100.00;99700.06;5114786;28;20084;-72
2023/11/23 00:43:27;;;;;;;25.40;4.30;;;;;;;11.80;100.00;99695.97;5112667;28;20065;-72
2023/11/23 00:45:52;;;;;;;27.63;4.72;;;;;;;11.70;100.00;99691.16;5113585;28;20047;-72
2023/11/23 00:48:18;;;;;;;35.00;4.05;;;;;;;11.76;100.00;99689.41;5096837;28;20507;-72
2023/11/23 00:50:43;;;;;;;22.15;4.03;;;;;;;11.66;100.00;99695.38;5097338;28;20051;-72
2023/11/23 00:53:08;;;;;;;17.48;3.15;;;;;;;11.77;100.00;99691.84;5114492;28;20077;-72
2023/11/23 00:55:34;;;;;;;19.65;3.45;;;;;;;11.96;100.00;99697.16;5097674;28;20052;-72
2023/11/23 00:57:59;;;;;;;14.98;2.50;;;;;;;11.86;100.00;99683.47;5114160;28;20040;-72
2023/11/23 01:00:24;;;;;;;15.98;1.95;;;;;;;11.79;100.00;99683.53;5113382;28;20012;-72
2023/11/23 01:02:51;;;;;;;30.17;3.78;;;;;;;11.77;100.00;99661.38;5112883;28;20012;-72
2023/11/23 01:05:18;;;;;;;20.77;3.28;;;;;;;11.69;100.00;99638.31;5079716;28;20028;-72
2023/11/23 01:07:44;;;;;;;23.80;3.35;;;;;;;12.04;100.00;99653.66;5111572;28;20044;-72
2023/11/23 01:10:10;;;;;;;24.15;3.05;;;;;;;12.05;100.00;99633.72;5110012;28;20028;-72
2023/11/23 01:12:36;;;;;;;24.35;3.60;;;;;;;12.11;100.00;99627.38;5093623;28;20027;-73
2023/11/23 01:15:02;;;;;;;22.42;3.47;;;;;;;12.18;100.00;99609.19;5109524;28;20428;-72
2023/11/23 01:17:28;;;;;;;24.10;2.85;;;;;;;12.06;100.00;99619.19;5111869;28;20041;-72
2023/11/23 01:19:53;;;;;;;16.08;3.05;;;;;;;12.01;100.00;99626.34;5095880;28;20031;-72
2023/11/23 01:22:18;;;;;;;17.30;2.70;;;;;;;12.03;100.00;99611.59;5112384;28;20024;-72
2023/11/23 01:24:44;;;;;;;16.25;2.90;;;;;;;11.98;100.00;99596.09;5112913;28;20592;-72
2023/11/23 01:27:10;;;;;;;20.40;2.60;;;;;;;11.90;100.00;99579.50;5112978;28;20046;-72
2023/11/23 01:29:35;;;;;;;17.45;2.22;;;;;;;11.94;100.00;99567.16;5098090;28;20050;-72
2023/11/23 01:32:01;;;;;;;14.05;2.17;;;;;;;11.89;100.00;99585.94;5086680;28;20095;-72
2023/11/23 01:34:26;;;;;;;17.50;2.50;;;;;;;11.88;100.00;99578.91;5112700;28;20035;-72
2023/11/23 01:36:52;;;;;;;19.10;2.67;;;;;;;12.09;100.00;99580.97;5114030;28;20024;-72
2023/11/23 01:39:17;;;;;;;16.45;2.75;;;;;;;11.92;100.00;99553.94;5094193;28;20118;-72
2023/11/23 01:41:43;;;;;;;17.35;3.63;;;;;;;12.06;100.00;99567.16;5112372;28;20016;-72
2023/11/23 01:44:10;;;;;;;20.05;2.83;;;;;;;12.01;100.00;99550.88;5095966;28;20093;-72
2023/11/23 01:46:35;;;;;;;9.98;1.67;;;;;;;11.80;100.00;99555.81;5096236;28;20031;-72
2023/11/23 01:49:03;;;;;;;13.23;2.28;;;;;;;11.94;100.00;99561.78;5112096;28;20024;-72
2023/11/23 01:51:29;;;;;;;15.43;2.22;;;;;;;11.93;100.00;99547.50;5113111;28;20035;-72
2023/11/23 01:53:55;;;;;;;11.02;2.22;;;;;;;11.96;100.00;99541.63;5112006;28;20032;-72
2023/11/23 01:56:22;;;;;;;14.60;2.03;;;;;;;11.96;100.00;99555.09;5095482;28;20039;-72
2023/11/23 01:58:48;;;;;;;14.02;2.10;;;;;;;11.97;100.00;99555.91;5095977;28;20032;-72
2023/11/23 02:01:13;;;;;;;24.52;2.55;;;;;;;12.03;100.00;99548.75;5112479;28;20036;-72
2023/11/23 02:03:39;;;;;;;13.15;2.40;;;;;;;11.99;100.00;99534.94;5112978;28;20031;-72
2023/11/23 02:06:05;;;;;;;18.55;2.78;;;;;;;12.00;100.00;99536.56;5113605;28;20019;-72
2023/11/23 02:08:30;;;;;;;16.33;2.42;;;;;;;11.90;100.00;99509.41;5095667;28;20032;-72
2023/11/23 02:10:57;;;;;;;23.70;3.53;;;;;;;11.94;100.00;99513.25;5112272;28;20130;-71
2023/11/23 02:13:22;;;;;;;12.82;2.25;;;;;;;11.85;100.00;99510.09;5111222;28;20020;-72
2023/11/23 02:15:48;;;;;;;14.35;2.80;;;;;;;12.03;100.00;99536.09;5103443;28;20519;-72
2023/11/23 02:18:14;;;;;;;20.05;2.63;;;;;;;12.06;100.00;99532.91;5107757;28;20095;-71
2023/11/23 02:20:42;;;;;;;18.63;2.90;;;;;;;11.86;100.00;99525.25;5106607;28;20050;-71
2023/11/23 02:23:07;;;;;;;27.15;3.53;;;;;;;11.98;100.00;99526.00;5106941;28;20028;-71
2023/11/23 02:25:33;;;;;;;31.50;4.35;;;;;;;12.00;100.00;99517.69;5092915;28;20042;-71
2023/11/23 02:27:58;;;;;;;16.55;2.78;;;;;;;12.01;100.00;99521.22;5112250;28;20031;-71
2023/11/23 02:30:24;;;;;;;18.60;3.10;;;;;;;11.96;100.00;99513.84;5111483;28;20012;-71
2023/11/23 02:32:50;;;;;;;15.27;2.45;;;;;;;11.94;100.00;99476.34;5112922;28;20034;-71
2023/11/23 02:35:18;;;;;;;17.05;2.75;;;;;;;12.18;100.00;99478.94;5094977;28;20027;-71
2023/11/23 02:37:44;;;;;;;11.15;2.17;;;;;;;12.16;100.00;99487.28;5113676;28;20020;-71
2023/11/23 02:40:10;;;;;;;16.83;2.40;;;;;;;12.03;100.00;99479.47;5113439;28;20016;-71
2023/11/23 02:42:38;;;;;;;24.40;3.53;;;;;;;12.18;100.00;99468.13;5112619;28;20028;-71
2023/11/23 02:45:04;;;;;;;25.55;3.20;;;;;;;12.08;100.00;99457.97;5079764;28;20016;-71
2023/11/23 02:47:30;;;;;;;23.80;3.60;;;;;;;11.96;100.00;99449.16;5113344;28;20032;-71
2023/11/23 02:49:55;;;;;;;21.52;2.75;;;;;;;11.95;100.00;99458.28;5095472;28;20024;-71
2023/11/23 02:52:20;;;;;;;18.98;2.72;;;;;;;12.21;100.00;99449.59;5105588;28;20024;-71
2023/11/23 02:54:46;;;;;;;21.55;3.22;;;;;;;12.09;100.00;99451.56;5087251;28;20015;-71
2023/11/23 02:57:11;;;;;;;22.30;3.55;;;;;;;12.12;100.00;99426.81;5112344;28;20023;-71
2023/11/23 02:59:37;;;;;;;19.92;2.75;;;;;;;12.06;100.00;99456.59;5113443;28;20108;-71
2023/11/23 03:02:03;;;;;;;15.10;2.60;;;;;;;12.07;100.00;99445.56;5095643;28;20012;-72
2023/11/23 03:04:28;;;;;;;15.00;2.30;;;;;;;12.12;100.00;99428.66;5112346;28;20024;-71
2023/11/23 03:06:53;;;;;;;11.85;1.65;;;;;;;12.06;100.00;99419.69;5112909;28;20032;-72
2023/11/23 03:09:19;;;;;;;17.08;2.72;;;;;;;11.87;100.00;99418.25;5112304;28;20032;-71
2023/11/23 03:11:45;;;;;;;13.93;1.42;;;;;;;12.04;100.00;99413.69;5109863;28;20079;-71
2023/11/23 03:14:11;;;;;;;14.48;2.15;;;;;;;11.97;100.00;99411.16;5109901;28;20025;-71
2023/11/23 03:16:36;;;;;;;14.27;2.22;;;;;;;11.92;100.00;99397.59;5111300;28;20020;-71
2023/11/23 03:19:03;;;;;;;13.10;2.10;;;;;;;12.12;100.00;99393.59;5112562;28;20024;-71
2023/11/23 03:21:28;;;;;;;16.17;2.28;;;;;;;12.05;100.00;99372.19;5112512;28;20020;-71
2023/11/23 03:23:54;;;;;;;13.18;2.38;;;;;;;12.05;100.00;99380.28;5113117;28;20100;-71
2023/11/23 03:26:19;;;;;;;11.75;2.05;;;;;;;11.84;100.00;99386.34;5112498;28;20038;-71
2023/11/23 03:28:44;;;;;;;9.13;1.67;;;;;;;11.98;100.00;99382.31;5112415;28;20102;-71
2023/11/23 03:31:10;;;;;;;17.42;2.35;;;;;;;12.05;100.00;99396.44;5110968;28;20032;-71
2023/11/23 03:33:36;;;;;;;7.63;1.65;;;;;;;11.96;100.00;99392.53;5112489;28;20028;-71
2023/11/23 03:36:01;;;;;;;12.00;1.88;;;;;;;12.07;100.00;99417.78;5114044;28;20024;-69
2023/11/23 03:38:26;;;;;;;17.33;3.40;;;;;;;12.09;100.00;99405.72;5115659;28;20032;-70
2023/11/23 03:40:52;;;;;;;14.40;2.50;;;;;;;12.07;100.00;99388.94;5117835;28;20015;-70
2023/11/23 03:43:17;;;;;;;19.98;3.13;;;;;;;12.10;100.00;99401.13;5117149;28;20039;-71
2023/11/23 03:45:43;;;;;;;17.13;2.50;;;;;;;12.14;100.00;99396.88;5102516;28;20414;-71
2023/11/23 03:48:08;;;;;;;24.73;3.53;;;;;;;12.23;100.00;99382.75;5092431;28;20095;-71
2023/11/23 03:50:33;;;;;;;19.27;3.45;;;;;;;12.16;100.00;99386.69;5117236;28;20237;-71
2023/11/23 03:52:59;;;;;;;23.55;3.53;;;;;;;12.06;100.00;99392.72;5116321;28;20050;-71
2023/11/23 03:55:24;;;;;;;17.15;3.58;;;;;;;11.90;100.00;99388.94;5099502;28;20012;-71
2023/11/23 03:57:50;;;;;;;30.67;3.95;;;;;;;12.06;100.00;99387.31;5115839;28;20051;-71
2023/11/23 04:00:16;;;;;;;22.15;3.13;;;;;;;12.07;100.00;99388.94;5114786;28;20050;-71
2023/11/23 04:02:46;;;;;;;28.60;4.22;;;;;;;12.23;100.00;99392.72;5104492;28;20656;-71
2023/11/23 04:05:16;;;;;;;25.75;3.97;;;;;;;12.00;100.00;99372.13;5108556;28;20016;-70
2023/11/23 04:07:42;;;;;;;25.58;4.80;;;;;;;12.17;100.00;99372.94;5116887;28;20032;-71
2023/11/23 04:10:07;;;;;;;30.38;4.50;;;;;;;12.19;100.00;99381.63;5116174;28;20024;-71
2023/11/23 04:12:33;;;;;;;27.95;3.78;;;;;;;12.04;100.00;99385.94;5117012;28;20031;-70
2023/11/23 04:14:58;;;;;;;21.38;3.67;;;;;;;12.09;100.00;99361.75;5099021;28;20038;-70
2023/11/23 04:17:24;;;;;;;19.67;3.78;;;;;;;12.00;100.00;99382.91;5098841;28;20084;-71
2023/11/23 04:19:50;;;;;;;26.65;4.00;;;;;;;12.06;100.00;99383.81;5115606;28;20031;-69
2023/11/23 04:22:16;;;;;;;30.77;4.47;;;;;;;12.04;100.00;99383.22;5115139;28;20024;-71
2023/11/23 04:24:42;;;;;;;29.98;5.57;;;;;;;12.04;100.00;99362.47;5115629;28;20114;-70
2023/11/23 04:27:09;;;;;;;30.30;5.05;;;;;;;11.88;100.00;99356.00;5116490;28;20070;-71
2023/11/23 04:29:34;;;;;;;27.88;5.05;;;;;;;11.80;100.00;99361.75;5116909;28;20028;-70
2023/11/23 04:32:00;;;;;;;33.25;5.32;;;;;;;11.84;100.00;99337.84;5115942;28;20039;-71
2023/11/23 04:34:26;;;;;;;25.27;4.90;;;;;;;11.72;100.00;99340.59;5116261;28;20079;-71
2023/11/23 04:36:51;;;;;;;28.25;4.55;;;;;;;11.90;100.00;99343.09;5115837;28;20076;-70
2023/11/23 04:39:17;;;;;;;20.33;3.05;;;;;;;11.93;100.00;99344.50;5099867;28;20059;-70
2023/11/23 04:41:43;;;;;;;31.58;4.70;;;;;;;12.09;100.00;99342.88;5113791;28;20063;-71
2023/11/23 04:44:08;;;;;;;21.20;3.72;;;;;;;12.11;100.00;99319.19;5111319;28;20036;-70
2023/11/23 04:46:34;;;;;;;33.58;5.25;;;;;;;12.12;100.00;99318.09;5110724;28;20024;-70
2023/11/23 04:49:00;;;;;;;21.55;3.92;;;;;;;12.02;100.00;99313.41;5112785;28;20035;-70
2023/11/23 04:51:25;;;;;;;32.97;5.70;;;;;;;11.86;100.00;99295.34;5115842;28;20028;-71
2023/11/23 04:53:51;;;;;;;38.50;7.22;;;;;;;11.92;100.00;99300.56;5098520;28;20055;-70
2023/11/23 04:56:17;;;;;;;31.55;4.60;;;;;;;11.92;100.00;99292.47;5114339;28;20619;-70
2023/11/23 04:58:43;;;;;;;34.63;6.07;;;;;;;12.09;100.00;99311.34;5112006;28;20036;-70
2023/11/23 05:01:09;;;;;;;30.67;4.47;;;;;;;12.14;100.00;99281.75;5112206;28;20050;-68
2023/11/23 05:03:34;;;;;;;33.08;4.15;;;;;;;12.29;100.00;99283.06;5105889;28;20035;-69
2023/11/23 05:06:01;;;;;;;26.85;4.20;;;;;;;12.27;100.00;99272.50;5107540;28;20050;-70
2023/11/23 05:08:26;;;;;;;29.52;4.93;;;;;;;12.17;100.00;99270.47;5112779;28;20020;-70
2023/11/23 05:10:53;;;;;;;27.60;4.50;;;;;;;12.06;100.00;99274.09;5109930;28;20032;-69
2023/11/23 05:13:18;;;;;;;34.80;5.22;;;;;;;12.04;100.00;99259.22;5108933;28;20031;-70
2023/11/23 05:15:44;;;;;;;31.40;5.20;;;;;;;11.94;100.00;99249.09;5112152;28;20066;-70
2023/11/23 05:18:09;;;;;;;34.08;5.70;;;;;;;11.98;100.00;99255.63;5109645;28;20035;-68
2023/11/23 05:20:35;;;;;;;27.63;4.40;;;;;;;12.07;100.00;99239.84;5107633;28;20040;-69
2023/11/23 05:23:00;;;;;;;26.58;5.20;;;;;;;12.05;100.00;99250.88;5105083;28;20042;-69
2023/11/23 05:25:26;;;;;;;33.85;4.72;;;;;;;12.05;100.00;99252.75;5112952;28;20027;-70
2023/11/23 05:27:51;;;;;;;36.63;5.55;;;;;;;11.99;100.00;99257.28;5107316;28;20036;-71
2023/11/23 05:30:17;;;;;;;38.30;6.00;;;;;;;12.14;100.00;99246.69;5096317;28;20020;-69
2023/11/23 05:32:45;;;;;;;33.63;5.65;;;;;;;11.94;100.00;99238.31;5099470;28;20036;-70
2023/11/23 05:35:10;;;;;;;34.75;5.43;;;;;;;11.94;100.00;99205.97;5103147;28;20159;-70
2023/11/23 05:37:36;;;;;;;37.78;6.90;;;;;;;11.74;100.00;99218.03;5106427;28;20026;-70
2023/11/23 05:40:01;;;;;;;38.30;6.57;;;;;;;11.99;100.00;99233.81;5103727;28;20072;-68
2023/11/23 05:42:27;;;;;;;37.10;6.45;;;;;;;12.03;100.00;99230.63;5112848;28;20024;-70
2023/11/23 05:44:52;;;;;;;38.58;5.72;;;;;;;12.07;100.00;99221.78;5113441;28;20032;-69
2023/11/23 05:47:18;;;;;;;34.35;5.07;;;;;;;11.94;100.00;99187.09;5078729;28;20140;-70
2023/11/23 05:49:44;;;;;;;37.75;6.03;;;;;;;11.94;100.00;99205.97;5109534;28;20036;-71
2023/11/23 05:52:10;;;;;;;42.95;6.75;;;;;;;11.94;100.00;99187.91;5101600;28;20032;-71
2023/11/23 05:54:37;;;;;;;37.30;6.05;;;;;;;12.12;100.00;99183.28;5106077;28;20028;-71
2023/11/23 05:57:03;;;;;;;29.17;4.53;;;;;;;11.98;100.00;99159.38;5102962;28;20012;-70
2023/11/23 05:59:29;;;;;;;36.53;5.40;;;;;;;12.03;100.00;99165.94;5073608;28;20052;-70
2023/11/23 06:01:55;;;;;;;30.77;5.30;;;;;;;12.06;100.00;99185.13;5100253;28;20038;-69
2023/11/23 06:04:20;;;;;;;43.15;7.03;;;;;;;11.88;100.00;99190.78;5111111;28;20168;-70
2023/11/23 06:06:45;;;;;;;43.35;7.20;;;;;;;11.97;100.00;99205.47;5102062;28;20055;-71
2023/11/23 06:09:11;;;;;;;39.58;6.80;;;;;;;11.81;100.00;99212.47;5077417;28;20491;-70
2023/11/23 06:11:36;;;;;;;39.42;6.93;;;;;;;11.83;100.00;99212.25;5102469;28;20069;-71
2023/11/23 06:14:02;;;;;;;48.55;7.10;;;;;;;11.82;100.00;99224.06;5110856;28;20055;-71
2023/11/23 06:16:28;;;;;;;42.85;6.53;;;;;;;11.93;100.00;99201.66;5113061;28;20016;-71
2023/11/23 06:18:53;;;;;;;32.25;5.57;;;;;;;11.68;100.00;99191.25;5109162;28;20044;-71
2023/11/23 06:21:19;;;;;;;35.05;4.68;;;;;;;11.87;100.00;99199.94;5093196;28;20039;-71
2023/11/23 06:23:45;;;;;;;32.53;5.35;;;;;;;11.79;100.00;99192.22;5109790;28;20038;-71
2023/11/23 06:26:11;;;;;;;39.13;6.68;;;;;;;11.88;100.00;99193.47;5111134;28;20318;-72
2023/11/23 06:28:38;;;;;;;34.00;5.80;;;;;;;11.67;100.00;99185.06;5110648;28;20032;-71
2023/11/23 06:31:03;;;;;;;36.47;6.00;;;;;;;11.68;100.00;99177.78;5113804;28;20039;-71
2023/11/23 06:33:30;;;;;;;36.05;5.47;;;;;;;11.66;100.00;99177.22;5111777;28;20079;-71
2023/11/23 06:35:55;;;;;;;36.25;4.90;;;;;;;11.68;100.00;99188.56;5113371;28;20079;-72
2023/11/23 06:38:21;;;;;;;32.05;5.18;;;;;;;11.73;100.00;99188.66;5095430;28;20028;-71
2023/11/23 06:40:48;;;;;;;48.72;8.30;;;;;;;11.74;100.00;99183.00;5096844;28;20028;-71
2023/11/23 06:43:15;;;;;;;38.20;5.78;;;;;;;11.65;100.00;99189.03;5113437;28;20036;-71
2023/11/23 06:45:40;;;;;;;41.40;5.28;;;;;;;11.51;100.00;99165.13;5113170;28;20028;-71
2023/11/23 06:48:06;;;;;;;35.60;6.30;;;;;;;11.50;100.00;99168.09;5112634;28;20019;-70
2023/11/23 06:50:32;;;;;;;42.47;5.78;;;;;;;11.59;100.00;99187.31;5106624;28;20024;-70
2023/11/23 06:52:58;;;;;;;32.05;5.28;;;;;;;11.74;100.00;99183.00;5096790;28;20043;-71
2023/11/23 06:55:24;;;;;;;27.08;4.95;;;;;;;11.65;100.00;99173.69;5092342;28;20040;-71
2023/11/23 06:57:49;;;;;;;28.80;4.15;;;;;;;11.55;100.00;99149.28;5109996;28;20043;-70
2023/11/23 07:00:25;;;;;;;23.67;3.67;;;;;;;11.64;100.00;99158.59;5110368;28;20241;-70
2023/11/23 07:02:58;;;;;;;26.52;3.95;;;;;;;11.76;99.96;99172.81;5090578;28;20036;-70
2023/11/23 07:05:24;;;;;;;28.85;4.07;;;;;;;11.74;100.00;99158.75;5089245;28;20029;-70
2023/11/23 07:07:51;;;;;;;33.67;5.28;;;;;;;11.76;100.00;99142.34;5093685;28;20020;-70
2023/11/23 07:10:17;;;;;;;32.90;5.65;;;;;;;11.75;100.00;99143.38;5093652;28;20032;-70
2023/11/23 07:12:44;;;;;;;29.42;5.07;;;;;;;11.62;100.00;99114.09;5086936;28;20415;-70
2023/11/23 07:15:12;;;;;;;36.13;6.65;;;;;;;11.62;100.00;99109.56;5104031;28;20025;-71
2023/11/23 07:17:38;;;;;;;18.08;3.25;;;;;;;11.62;99.72;99120.34;5110085;28;20032;-70
2023/11/23 07:20:06;;;;;;;19.63;2.78;;;;;;;11.71;97.11;99126.09;5091694;28;20108;-69
2023/11/23 07:22:33;;;;;;;23.60;3.92;;;;;;;11.56;96.67;99118.63;5095376;28;20036;-70
2023/11/23 07:25:00;;;;;;;26.58;4.75;;;;;;;11.61;96.33;99105.22;5107997;28;20036;-70
2023/11/23 07:27:26;;;;;;;29.85;4.68;;;;;;;11.53;96.55;99113.72;5089669;28;20031;-70
2023/11/23 07:29:51;;;;;;;26.90;3.95;;;;;;;11.63;96.06;99099.59;5096205;28;20028;-70
2023/11/23 07:32:17;;;;;;;26.05;5.47;;;;;;;11.64;95.89;99106.59;5089778;28;20147;-71
2023/11/23 07:34:42;;;;;;;27.35;5.07;;;;;;;11.55;97.50;99100.81;5088163;28;20032;-71
2023/11/23 07:37:10;;;;;;;28.20;5.93;;;;;;;11.33;98.55;99083.78;5102570;28;20065;-72
2023/11/23 07:39:35;;;;;;;28.02;4.28;;;;;;;11.61;98.05;99102.50;5104893;28;20042;-71
2023/11/23 07:42:01;;;;;;;32.13;5.93;;;;;;;11.66;98.11;99109.88;5109631;28;20019;-72
2023/11/23 07:44:27;;;;;;;38.20;5.20;;;;;;;11.56;98.52;99107.03;5112209;28;20031;-72
2023/11/23 07:46:53;;;;;;;38.75;6.70;;;;;;;11.64;99.35;99118.19;5111879;28;20153;-72
2023/11/23 07:49:18;;;;;;;41.55;6.32;;;;;;;11.52;100.00;99087.81;5093620;28;20074;-72
2023/11/23 07:51:44;;;;;;;43.40;6.85;;;;;;;11.56;100.00;99080.09;5093012;28;20039;-72
2023/11/23 07:54:09;;;;;;;39.25;6.38;;;;;;;11.60;100.00;99065.88;5112366;28;20081;-72
2023/11/23 07:56:35;;;;;;;44.17;6.95;;;;;;;11.73;100.00;99053.91;5112417;28;20015;-72
2023/11/23 07:59:00;;;;;;;36.90;5.90;;;;;;;11.74;100.00;99056.34;5115262;28;20056;-72
2023/11/23 08:01:26;;;;;;;48.05;7.20;;;;;;;11.81;100.00;99060.75;5095517;28;20024;-72
2023/11/23 08:03:51;;;;;;;26.70;4.45;;;;;;;11.71;100.00;99040.69;5112554;28;20100;-72
2023/11/23 08:06:17;;;;;;;38.17;5.15;;;;;;;11.60;100.00;98989.63;5110872;28;20092;-71
2023/11/23 08:08:42;;;;;;;28.63;5.07;;;;;;;11.81;100.00;99012.25;5111331;28;20043;-71
2023/11/23 08:11:08;;;;;;;37.38;6.53;;;;;;;11.80;100.00;99041.06;5109644;28;20043;-71
2023/11/23 08:13:33;;;;;;;34.63;5.78;;;;;;;11.75;99.82;98992.50;5093443;28;20044;-70
2023/11/23 08:16:02;;;;;;;24.27;4.80;;;;;;;11.52;98.59;98953.16;5111807;28;20040;-71
2023/11/23 08:18:27;;;;;;;30.45;4.75;;;;;;;11.74;98.23;98980.91;5115284;28;20004;-72
2023/11/23 08:20:53;;;;;;;30.23;5.68;;;;;;;11.80;97.51;98997.97;5110631;28;20057;-71
2023/11/23 08:23:18;;;;;;;32.72;6.30;;;;;;;11.77;96.88;98980.41;5084565;28;20052;-68
2023/11/23 08:25:43;;;;;;;30.52;5.63;;;;;;;11.82;96.20;98997.69;5113388;28;20012;-69
2023/11/23 08:28:09;;;;;;;31.95;5.75;;;;;;;11.68;96.44;99000.75;5110707;28;20031;-70
2023/11/23 08:30:35;;;;;;;27.42;4.40;;;;;;;11.73;95.77;99035.06;5112289;28;20028;-69
2023/11/23 08:33:00;;;;;;;30.35;5.35;;;;;;;11.60;95.08;99049.72;5113882;28;20054;-69
2023/11/23 08:35:26;;;;;;;28.52;4.35;;;;;;;11.45;94.71;99022.56;5113935;28;20159;-72
2023/11/23 08:37:51;;;;;;;26.98;5.25;;;;;;;11.41;93.19;98986.41;5113037;28;20075;-70
2023/11/23 08:40:17;;;;;;;26.40;4.72;;;;;;;11.39;93.12;99028.94;5093863;28;20038;-69
2023/11/23 08:42:42;;;;;;;32.80;5.07;;;;;;;11.50;93.18;99017.25;5112437;28;20036;-68
2023/11/23 08:45:08;;;;;;;29.05;5.47;;;;;;;11.39;94.25;98983.16;5111964;28;20036;-69
2023/11/23 08:47:34;;;;;;;26.77;5.50;;;;;;;11.49;94.49;99002.97;5108516;28;20556;-71
2023/11/23 08:50:00;;;;;;;24.70;4.38;;;;;;;11.53;94.74;99003.28;5113367;28;20036;-71
2023/11/23 08:52:25;;;;;;;30.25;5.50;;;;;;;11.49;94.79;99015.63;5092144;28;20028;-71
2023/11/23 08:54:50;;;;;;;25.23;4.75;;;;;;;11.54;94.44;99023.75;5111701;28;20028;-72
2023/11/23 08:57:16;;;;;;;31.40;5.25;;;;;;;11.50;94.70;99022.63;5105504;28;20038;-71
2023/11/23 08:59:42;;;;;;;29.45;5.78;;;;;;;11.28;95.41;99017.19;5034716;28;1520752;-71
2023/11/23 09:02:09;;;;;;;28.67;5.15;;;;;;;11.44;94.98;99012.84;5090807;28;20040;-70
2023/11/23 09:04:36;;;;;;;29.05;4.85;;;;;;;11.58;94.63;99024.06;5083584;28;20040;-72
2023/11/23 09:07:01;;;;;;;37.10;6.32;;;;;;;11.60;93.74;99017.38;5100788;28;20020;-71
2023/11/23 09:09:27;;;;;;;26.75;4.80;;;;;;;11.52;92.47;99012.41;5103903;28;20043;-72
2023/11/23 09:11:52;;;;;;;26.90;4.55;;;;;;;11.56;90.99;99010.06;5112986;28;20081;-70
2023/11/23 09:14:18;;;;;;;32.92;6.03;;;;;;;11.55;90.01;99003.84;5094978;28;20051;-71
2023/11/23 09:16:44;;;;;;;20.38;3.85;;;;;;;11.61;88.63;99010.09;5071510;28;20030;-70
2023/11/23 09:19:09;;;;;;;27.73;4.13;;;;;;;11.70;88.10;99017.50;5113416;28;20027;-71
2023/11/23 09:21:35;;;;;;;28.00;4.22;;;;;;;11.70;87.35;99014.81;5105708;28;20028;-70
2023/11/23 09:24:02;;;;;;;21.42;4.03;;;;;;;11.66;87.69;99012.88;5113290;28;20062;-70
2023/11/23 09:26:28;;;;;;;33.28;5.22;;;;;;;11.77;88.38;99020.81;5108609;28;20054;-70
2023/11/23 09:28:53;;;;;;;31.70;5.55;;;;;;;11.84;88.03;99023.38;5087264;28;20031;-70
2023/11/23 09:31:19;;;;;;;23.27;4.03;;;;;;;11.51;85.83;99013.47;5110951;28;20062;-71
2023/11/23 09:33:44;;;;;;;19.52;3.80;;;;;;;11.65;83.85;99019.31;5106857;28;20047;-70
2023/11/23 09:36:11;;;;;;;22.38;3.70;;;;;;;11.53;84.02;99022.94;5101731;28;20402;-70
2023/11/23 09:38:37;;;;;;;16.88;3.97;;;;;;;11.34;82.51;98983.91;5104552;28;20028;-69
2023/11/23 09:41:06;;;;;;;13.55;3.08;;;;;;;11.65;81.67;98998.56;5101923;28;20028;-71
2023/11/23 09:43:32;;;;;;;22.15;3.28;;;;;;;11.66;82.06;98991.31;5111717;28;20023;-69
2023/11/23 09:45:58;;;;;;;22.65;3.70;;;;;;;11.78;82.48;98983.91;5107515;28;20170;-70
2023/11/23 09:48:27;;;;;;;19.48;3.92;;;;;;;11.66;83.56;98946.34;5088779;28;20036;-70
2023/11/23 09:50:53;;;;;;;19.00;3.55;;;;;;;11.48;84.48;98965.50;5103564;28;20071;-69
2023/11/23 09:53:19;;;;;;;26.30;4.53;;;;;;;11.29;85.24;98944.28;5083629;28;20463;-70
2023/11/23 09:55:44;;;;;;;19.83;3.72;;;;;;;11.44;86.29;98959.78;5106671;28;20032;-68
2023/11/23 09:58:10;;;;;;;19.60;3.97;;;;;;;11.43;87.17;98957.38;5095039;28;20111;-70
2023/11/23 10:00:35;;;;;;;16.20;2.85;;;;;;;11.37;87.52;98939.50;5107060;28;20028;-69
2023/11/23 10:03:06;;;;;;;23.05;3.50;;;;;;;11.29;87.97;98946.13;5107450;28;20076;-71
2023/11/23 10:05:33;;;;;;;17.38;3.45;;;;;;;11.28;87.72;98939.13;5099911;28;20394;-71
2023/11/23 10:07:59;;;;;;;30.27;4.43;;;;;;;11.30;87.28;98939.69;5079254;28;20024;-71
2023/11/23 10:10:25;;;;;;;24.35;4.13;;;;;;;11.24;87.01;98919.97;5081163;28;20057;-71
2023/11/23 10:12:50;;;;;;;31.30;4.72;;;;;;;11.36;87.48;98921.72;5096075;28;20031;-70
2023/11/23 10:15:16;;;;;;;27.13;5.10;;;;;;;11.05;87.47;98902.47;5105523;28;20152;-71
2023/11/23 10:17:41;;;;;;;25.55;4.50;;;;;;;11.25;86.95;98910.81;5094252;28;20024;-71
2023/11/23 10:20:16;;;;;;;25.40;4.70;;;;;;;11.26;86.58;98923.22;5092106;28;20059;-70
2023/11/23 10:22:42;;;;;;;;;;;;;;;11.26;86.17;98919.72;5097842;28;20024;-70
2023/11/23 10:25:08;;;;;;;27.30;4.82;;;;;;;11.16;85.96;98906.94;5097474;28;20375;-70
2023/11/23 10:27:34;;;;;;;24.80;4.95;;;;;;;11.24;85.73;98911.88;5096509;28;20036;-71
2023/11/23 10:30:01;;;;;;;32.63;4.60;;;;;;;11.51;84.49;98911.94;5097487;28;20024;-70
2023/11/23 10:32:30;;;;;;;23.25;3.70;;;;;;;11.40;85.58;98898.63;5096389;28;20062;-70
2023/11/23 10:35:04;;;;;;;32.75;5.47;;;;;;;11.59;85.28;98896.41;5097608;28;20020;-70
2023/11/23 10:37:33;;;;;;;28.30;4.75;;;;;;;11.40;86.88;98885.16;5098149;28;20028;-71
2023/11/23 10:39:58;;;;;;;35.55;6.60;;;;;;;11.44;86.29;98897.03;5095790;28;20020;-71
2023/11/23 10:42:24;;;;;;;31.63;5.55;;;;;;;11.54;84.83;98891.78;5093187;28;20034;-70
2023/11/23 10:44:50;;;;;;;22.83;4.60;;;;;;;11.49;83.35;98889.84;5095618;28;20032;-70
2023/11/23 10:47:17;;;;;;;23.35;4.47;;;;;;;11.52;82.90;98893.91;5098332;28;20028;-70
2023/11/23 10:49:44;;;;;;;27.10;5.05;;;;;;;11.51;82.43;98887.69;5094329;28;20028;-70
2023/11/23 10:52:11;;;;;;;25.33;3.95;;;;;;;11.42;82.77;98891.94;5077474;28;20044;-71
2023/11/23 10:54:36;;;;;;;21.33;4.07;;;;;;;11.42;83.18;98896.47;5096524;28;20103;-71
2023/11/23 10:57:07;;;;;;;27.23;4.78;;;;;;;11.47;83.47;98880.38;5097286;28;20158;-71
2023/11/23 10:59:34;;;;;;;25.85;4.97;;;;;;;11.35;83.61;98882.38;5096759;28;20051;-70
2023/11/23 11:02:01;;;;;;;25.80;4.93;;;;;;;11.45;83.61;98863.66;5095548;28;20441;-71
2023/11/23 11:04:29;;;;;;;25.38;4.40;;;;;;;11.15;85.03;98873.00;5095619;28;20697;-71
2023/11/23 11:06:57;;;;;;;22.83;3.20;;;;;;;11.11;84.35;98858.41;5097871;28;20040;-70
2023/11/23 11:09:25;;;;;;;23.88;4.20;;;;;;;11.32;82.36;98853.28;5096496;28;20058;-70
2023/11/23 11:11:56;;;;;;;23.60;3.92;;;;;;;11.27;82.81;98841.38;5097695;28;20020;-70
2023/11/23 11:14:34;;;;;;;19.08;4.07;;;;;;;11.15;82.44;98843.38;5094879;28;20390;-70